sensor_id;sensor_type;location;lat;lon;timestamp;temperature;humidity
47521;DHT22;32291;52.010;4.446;2024-01-25T00:00:41;8.10;99.90
47521;DHT22;32291;52.010;4.446;2024-01-25T00:01:47;8.10;99.90
47521;DHT22;32291;52.010;4.446;2024-01-25T00:02:49;8.10;99.90
47521;DHT22;32291;52.010;4.446;2024-01-25T00:03:56;8.10;99.90
47521;DHT22;32291;52.010;4.446;2024-01-25T00:05:03;8.10;99.90
47521;DHT22;32291;52.010;4.446;2024-01-25T00:06:06;8.10;99.90
47521;DHT22;32291;52.010;4.446;2024-01-25T00:07:16;8.10;99.90
47521;DHT22;32291;52.010;4.446;2024-01-25T00:08:19;8.10;99.90
47521;DHT22;32291;52.010;4.446;2024-01-25T00:09:21;8.00;99.90
47521;DHT22;32291;52.010;4.446;2024-01-25T00:10:28;8.00;99.90
47521;DHT22;32291;52.010;4.446;2024-01-25T00:11:35;8.10;99.90
47521;DHT22;32291;52.010;4.446;2024-01-25T00:12:42;8.10;99.90
47521;DHT22;32291;52.010;4.446;2024-01-25T00:13:49;8.10;99.90
47521;DHT22;32291;52.010;4.446;2024-01-25T00:14:56;8.20;99.90
47521;DHT22;32291;52.010;4.446;2024-01-25T00:16:03;8.10;99.90
47521;DHT22;32291;52.010;4.446;2024-01-25T00:17:10;8.20;99.90
47521;DHT22;32291;52.010;4.446;2024-01-25T00:18:17;8.10;99.90
47521;DHT22;32291;52.010;4.446;2024-01-25T00:19:24;8.10;99.90
47521;DHT22;32291;52.010;4.446;2024-01-25T00:20:32;8.10;99.90
47521;DHT22;32291;52.010;4.446;2024-01-25T00:21:34;8.10;99.90
47521;DHT22;32291;52.010;4.446;2024-01-25T00:22:41;8.10;99.90
47521;DHT22;32291;52.010;4.446;2024-01-25T00:23:43;8.10;99.90
47521;DHT22;32291;52.010;4.446;2024-01-25T00:24:50;8.10;99.90
47521;DHT22;32291;52.010;4.446;2024-01-25T00:25:57;8.00;99.90
47521;DHT22;32291;52.010;4.446;2024-01-25T00:27:06;8.00;99.90
47521;DHT22;32291;52.010;4.446;2024-01-25T00:28:13;7.90;99.90
47521;DHT22;32291;52.010;4.446;2024-01-25T00:29:15;8.00;99.90
47521;DHT22;32291;52.010;4.446;2024-01-25T00:30:23;8.00;99.90
47521;DHT22;32291;52.010;4.446;2024-01-25T00:31:29;8.00;99.90
47521;DHT22;32291;52.010;4.446;2024-01-25T00:32:36;8.00;99.90
47521;DHT22;32291;52.010;4.446;2024-01-25T00:33:43;8.00;99.90
47521;DHT22;32291;52.010;4.446;2024-01-25T00:34:50;8.00;99.90
47521;DHT22;32291;52.010;4.446;2024-01-25T00:35:57;8.00;99.90
47521;DHT22;32291;52.010;4.446;2024-01-25T00:37:10;8.00;99.90
47521;DHT22;32291;52.010;4.446;2024-01-25T00:38:17;8.00;99.90
47521;DHT22;32291;52.010;4.446;2024-01-25T00:39:25;7.90;99.90
47521;DHT22;32291;52.010;4.446;2024-01-25T00:40:32;8.00;99.90
47521;DHT22;32291;52.010;4.446;2024-01-25T00:41:40;8.00;99.90
47521;DHT22;32291;52.010;4.446;2024-01-25T00:42:50;8.00;99.90
47521;DHT22;32291;52.010;4.446;2024-01-25T00:44:01;7.90;99.90
47521;DHT22;32291;52.010;4.446;2024-01-25T00:45:09;7.90;99.90
47521;DHT22;32291;52.010;4.446;2024-01-25T00:46:17;7.90;99.90
47521;DHT22;32291;52.010;4.446;2024-01-25T00:47:20;7.90;99.90
47521;DHT22;32291;52.010;4.446;2024-01-25T00:48:27;7.90;99.90
47521;DHT22;32291;52.010;4.446;2024-01-25T00:49:30;7.90;99.90
47521;DHT22;32291;52.010;4.446;2024-01-25T00:50:38;7.80;99.90
47521;DHT22;32291;52.010;4.446;2024-01-25T00:51:44;7.90;99.90
47521;DHT22;32291;52.010;4.446;2024-01-25T00:52:54;7.90;99.90
47521;DHT22;32291;52.010;4.446;2024-01-25T00:54:01;7.90;99.90
47521;DHT22;32291;52.010;4.446;2024-01-25T00:55:09;7.90;99.90
47521;DHT22;32291;52.010;4.446;2024-01-25T00:56:17;7.80;99.90
47521;DHT22;32291;52.010;4.446;2024-01-25T00:57:24;7.80;99.90
47521;DHT22;32291;52.010;4.446;2024-01-25T00:58:32;7.80;99.90
47521;DHT22;32291;52.010;4.446;2024-01-25T00:59:35;7.80;99.90
47521;DHT22;32291;52.010;4.446;2024-01-25T01:00:42;7.70;99.90
47521;DHT22;32291;52.010;4.446;2024-01-25T01:01:52;7.80;99.90
47521;DHT22;32291;52.010;4.446;2024-01-25T01:02:58;7.80;99.90
47521;DHT22;32291;52.010;4.446;2024-01-25T01:04:05;7.80;99.90
47521;DHT22;32291;52.010;4.446;2024-01-25T01:05:12;7.80;99.90
47521;DHT22;32291;52.010;4.446;2024-01-25T01:06:15;7.80;99.90
47521;DHT22;32291;52.010;4.446;2024-01-25T01:07:18;7.80;99.90
47521;DHT22;32291;52.010;4.446;2024-01-25T01:08:25;7.80;99.90
47521;DHT22;32291;52.010;4.446;2024-01-25T01:09:32;7.80;99.90
47521;DHT22;32291;52.010;4.446;2024-01-25T01:10:35;7.80;99.90
47521;DHT22;32291;52.010;4.446;2024-01-25T01:11:41;7.80;99.90
47521;DHT22;32291;52.010;4.446;2024-01-25T01:12:48;7.80;99.90
47521;DHT22;32291;52.010;4.446;2024-01-25T01:13:55;7.80;99.90
47521;DHT22;32291;52.010;4.446;2024-01-25T01:15:02;7.80;99.90
47521;DHT22;32291;52.010;4.446;2024-01-25T01:16:10;7.80;99.90
47521;DHT22;32291;52.010;4.446;2024-01-25T01:17:17;7.80;99.90
47521;DHT22;32291;52.010;4.446;2024-01-25T01:18:25;7.80;99.90
47521;DHT22;32291;52.010;4.446;2024-01-25T01:19:32;7.80;99.90
47521;DHT22;32291;52.010;4.446;2024-01-25T01:20:38;7.70;99.90
47521;DHT22;32291;52.010;4.446;2024-01-25T01:21:41;7.70;99.90
47521;DHT22;32291;52.010;4.446;2024-01-25T01:22:51;7.70;99.90
47521;DHT22;32291;52.010;4.446;2024-01-25T01:23:53;7.70;99.90
47521;DHT22;32291;52.010;4.446;2024-01-25T01:25:00;7.70;99.90
47521;DHT22;32291;52.010;4.446;2024-01-25T01:26:07;7.60;99.90
47521;DHT22;32291;52.010;4.446;2024-01-25T01:27:17;7.60;99.90
47521;DHT22;32291;52.010;4.446;2024-01-25T01:28:24;7.70;99.90
47521;DHT22;32291;52.010;4.446;2024-01-25T01:29:31;7.50;99.90
47521;DHT22;32291;52.010;4.446;2024-01-25T01:30:38;7.60;99.90
47521;DHT22;32291;52.010;4.446;2024-01-25T01:31:48;7.50;99.90
47521;DHT22;32291;52.010;4.446;2024-01-25T01:32:54;7.50;99.90
47521;DHT22;32291;52.010;4.446;2024-01-25T01:34:01;7.50;99.90
47521;DHT22;32291;52.010;4.446;2024-01-25T01:35:08;7.40;99.90
47521;DHT22;32291;52.010;4.446;2024-01-25T01:36:15;7.40;99.90
47521;DHT22;32291;52.010;4.446;2024-01-25T01:37:22;7.40;99.90
47521;DHT22;32291;52.010;4.446;2024-01-25T01:38:29;7.50;99.90
47521;DHT22;32291;52.010;4.446;2024-01-25T01:39:36;7.40;99.90
47521;DHT22;32291;52.010;4.446;2024-01-25T01:40:44;7.40;99.90
47521;DHT22;32291;52.010;4.446;2024-01-25T01:41:52;7.40;99.90
47521;DHT22;32291;52.010;4.446;2024-01-25T01:43:01;7.40;99.90
47521;DHT22;32291;52.010;4.446;2024-01-25T01:44:08;7.30;99.90
47521;DHT22;32291;52.010;4.446;2024-01-25T01:45:11;7.40;99.90
47521;DHT22;32291;52.010;4.446;2024-01-25T01:46:29;7.30;99.90
47521;DHT22;32291;52.010;4.446;2024-01-25T01:47:41;7.30;99.90
47521;DHT22;32291;52.010;4.446;2024-01-25T01:48:48;7.30;99.90
47521;DHT22;32291;52.010;4.446;2024-01-25T01:49:55;7.40;99.90
47521;DHT22;32291;52.010;4.446;2024-01-25T01:50:58;7.30;99.90
47521;DHT22;32291;52.010;4.446;2024-01-25T01:52:06;7.20;99.90
47521;DHT22;32291;52.010;4.446;2024-01-25T01:53:13;7.20;99.90
47521;DHT22;32291;52.010;4.446;2024-01-25T01:54:20;7.10;99.90
47521;DHT22;32291;52.010;4.446;2024-01-25T01:55:28;7.20;99.90
47521;DHT22;32291;52.010;4.446;2024-01-25T01:56:36;7.30;99.90
47521;DHT22;32291;52.010;4.446;2024-01-25T01:57:45;7.20;99.90
47521;DHT22;32291;52.010;4.446;2024-01-25T01:58:54;7.10;99.90
47521;DHT22;32291;52.010;4.446;2024-01-25T02:00:00;7.20;99.90
47521;DHT22;32291;52.010;4.446;2024-01-25T02:01:13;7.20;99.90
47521;DHT22;32291;52.010;4.446;2024-01-25T02:02:20;7.10;99.90
47521;DHT22;32291;52.010;4.446;2024-01-25T02:03:27;7.10;99.90
47521;DHT22;32291;52.010;4.446;2024-01-25T02:04:34;7.20;99.90
47521;DHT22;32291;52.010;4.446;2024-01-25T02:05:36;7.10;99.90
47521;DHT22;32291;52.010;4.446;2024-01-25T02:06:46;7.10;99.90
47521;DHT22;32291;52.010;4.446;2024-01-25T02:07:53;7.10;99.90
47521;DHT22;32291;52.010;4.446;2024-01-25T02:09:00;7.10;99.90
47521;DHT22;32291;52.010;4.446;2024-01-25T02:10:08;7.10;99.90
47521;DHT22;32291;52.010;4.446;2024-01-25T02:11:16;7.10;99.90
47521;DHT22;32291;52.010;4.446;2024-01-25T02:12:19;7.10;99.90
47521;DHT22;32291;52.010;4.446;2024-01-25T02:13:25;7.10;99.90
47521;DHT22;32291;52.010;4.446;2024-01-25T02:14:32;7.00;99.90
47521;DHT22;32291;52.010;4.446;2024-01-25T02:15:39;7.00;99.90
47521;DHT22;32291;52.010;4.446;2024-01-25T02:16:46;7.00;99.90
47521;DHT22;32291;52.010;4.446;2024-01-25T02:17:48;7.00;99.90
47521;DHT22;32291;52.010;4.446;2024-01-25T02:18:55;7.00;99.90
47521;DHT22;32291;52.010;4.446;2024-01-25T02:20:04;7.00;99.90
47521;DHT22;32291;52.010;4.446;2024-01-25T02:21:12;7.00;99.90
47521;DHT22;32291;52.010;4.446;2024-01-25T02:22:19;7.00;99.90
47521;DHT22;32291;52.010;4.446;2024-01-25T02:23:26;7.00;99.90
47521;DHT22;32291;52.010;4.446;2024-01-25T02:24:33;7.00;99.90
47521;DHT22;32291;52.010;4.446;2024-01-25T02:25:40;7.00;99.90
47521;DHT22;32291;52.010;4.446;2024-01-25T02:26:47;7.00;99.90
47521;DHT22;32291;52.010;4.446;2024-01-25T02:27:53;7.00;99.90
47521;DHT22;32291;52.010;4.446;2024-01-25T02:29:00;7.00;99.90
47521;DHT22;32291;52.010;4.446;2024-01-25T02:30:02;6.90;99.90
47521;DHT22;32291;52.010;4.446;2024-01-25T02:31:10;6.90;99.90
47521;DHT22;32291;52.010;4.446;2024-01-25T02:32:16;6.90;99.90
47521;DHT22;32291;52.010;4.446;2024-01-25T02:33:23;6.90;99.90
47521;DHT22;32291;52.010;4.446;2024-01-25T02:34:30;6.90;99.90
47521;DHT22;32291;52.010;4.446;2024-01-25T02:35:37;6.90;99.90
47521;DHT22;32291;52.010;4.446;2024-01-25T02:36:44;6.90;99.90
47521;DHT22;32291;52.010;4.446;2024-01-25T02:37:51;6.90;99.90
47521;DHT22;32291;52.010;4.446;2024-01-25T02:38:58;6.90;99.90
47521;DHT22;32291;52.010;4.446;2024-01-25T02:40:05;6.80;99.90
47521;DHT22;32291;52.010;4.446;2024-01-25T02:41:09;6.80;99.90
47521;DHT22;32291;52.010;4.446;2024-01-25T02:42:16;6.80;99.90
47521;DHT22;32291;52.010;4.446;2024-01-25T02:43:23;6.70;99.90
47521;DHT22;32291;52.010;4.446;2024-01-25T02:44:30;6.70;99.90
47521;DHT22;32291;52.010;4.446;2024-01-25T02:45:32;6.70;99.90
47521;DHT22;32291;52.010;4.446;2024-01-25T02:46:34;6.70;99.90
47521;DHT22;32291;52.010;4.446;2024-01-25T02:47:39;6.70;99.90
47521;DHT22;32291;52.010;4.446;2024-01-25T02:48:42;6.80;99.90
47521;DHT22;32291;52.010;4.446;2024-01-25T02:49:48;6.80;99.90
47521;DHT22;32291;52.010;4.446;2024-01-25T02:50:55;6.70;99.90
47521;DHT22;32291;52.010;4.446;2024-01-25T02:51:57;6.70;99.90
47521;DHT22;32291;52.010;4.446;2024-01-25T02:53:04;6.70;99.90
47521;DHT22;32291;52.010;4.446;2024-01-25T02:54:14;6.70;99.90
47521;DHT22;32291;52.010;4.446;2024-01-25T02:55:19;6.60;99.90
47521;DHT22;32291;52.010;4.446;2024-01-25T02:56:26;6.60;99.90
47521;DHT22;32291;52.010;4.446;2024-01-25T02:57:28;6.60;99.90
47521;DHT22;32291;52.010;4.446;2024-01-25T02:58:40;6.60;99.90
47521;DHT22;32291;52.010;4.446;2024-01-25T02:59:47;6.70;99.90
47521;DHT22;32291;52.010;4.446;2024-01-25T03:00:54;6.60;99.90
47521;DHT22;32291;52.010;4.446;2024-01-25T03:01:57;6.60;99.90
47521;DHT22;32291;52.010;4.446;2024-01-25T03:03:04;6.60;99.90
47521;DHT22;32291;52.010;4.446;2024-01-25T03:04:11;6.60;99.90
47521;DHT22;32291;52.010;4.446;2024-01-25T03:05:18;6.50;99.90
47521;DHT22;32291;52.010;4.446;2024-01-25T03:06:25;6.50;99.90
47521;DHT22;32291;52.010;4.446;2024-01-25T03:07:32;6.50;99.90
47521;DHT22;32291;52.010;4.446;2024-01-25T03:08:38;6.50;99.90
47521;DHT22;32291;52.010;4.446;2024-01-25T03:09:41;6.40;99.90
47521;DHT22;32291;52.010;4.446;2024-01-25T03:10:47;6.40;99.90
47521;DHT22;32291;52.010;4.446;2024-01-25T03:11:57;6.40;99.90
47521;DHT22;32291;52.010;4.446;2024-01-25T03:12:59;6.50;99.90
47521;DHT22;32291;52.010;4.446;2024-01-25T03:14:01;6.50;99.90
47521;DHT22;32291;52.010;4.446;2024-01-25T03:15:04;6.60;99.90
47521;DHT22;32291;52.010;4.446;2024-01-25T03:16:08;6.40;99.90
47521;DHT22;32291;52.010;4.446;2024-01-25T03:17:15;6.50;99.90
47521;DHT22;32291;52.010;4.446;2024-01-25T03:18:22;6.40;99.90
47521;DHT22;32291;52.010;4.446;2024-01-25T03:19:29;6.40;99.90
47521;DHT22;32291;52.010;4.446;2024-01-25T03:20:35;6.40;99.90
47521;DHT22;32291;52.010;4.446;2024-01-25T03:21:45;6.40;99.90
47521;DHT22;32291;52.010;4.446;2024-01-25T03:22:52;6.40;99.90
47521;DHT22;32291;52.010;4.446;2024-01-25T03:23:59;6.40;99.90
47521;DHT22;32291;52.010;4.446;2024-01-25T03:25:06;6.30;99.90
47521;DHT22;32291;52.010;4.446;2024-01-25T03:26:15;6.30;99.90
47521;DHT22;32291;52.010;4.446;2024-01-25T03:27:22;6.30;99.90
47521;DHT22;32291;52.010;4.446;2024-01-25T03:28:28;6.30;99.90
47521;DHT22;32291;52.010;4.446;2024-01-25T03:29:36;6.30;99.90
47521;DHT22;32291;52.010;4.446;2024-01-25T03:30:44;6.10;99.90
47521;DHT22;32291;52.010;4.446;2024-01-25T03:31:51;6.10;99.90
47521;DHT22;32291;52.010;4.446;2024-01-25T03:32:58;6.10;99.90
47521;DHT22;32291;52.010;4.446;2024-01-25T03:34:05;6.00;99.90
47521;DHT22;32291;52.010;4.446;2024-01-25T03:35:10;6.00;99.90
47521;DHT22;32291;52.010;4.446;2024-01-25T03:36:14;6.00;99.90
47521;DHT22;32291;52.010;4.446;2024-01-25T03:37:24;6.00;99.90
47521;DHT22;32291;52.010;4.446;2024-01-25T03:38:31;6.00;99.90
47521;DHT22;32291;52.010;4.446;2024-01-25T03:39:41;6.00;99.90
47521;DHT22;32291;52.010;4.446;2024-01-25T03:40:47;6.00;99.90
47521;DHT22;32291;52.010;4.446;2024-01-25T03:41:54;6.00;99.90
47521;DHT22;32291;52.010;4.446;2024-01-25T03:43:01;6.00;99.90
47521;DHT22;32291;52.010;4.446;2024-01-25T03:44:03;6.00;99.90
47521;DHT22;32291;52.010;4.446;2024-01-25T03:45:10;5.90;99.90
47521;DHT22;32291;52.010;4.446;2024-01-25T03:46:12;5.90;99.90
47521;DHT22;32291;52.010;4.446;2024-01-25T03:47:15;5.80;99.90
47521;DHT22;32291;52.010;4.446;2024-01-25T03:48:22;5.70;99.90
47521;DHT22;32291;52.010;4.446;2024-01-25T03:49:29;5.60;99.90
47521;DHT22;32291;52.010;4.446;2024-01-25T03:50:31;5.60;99.90
47521;DHT22;32291;52.010;4.446;2024-01-25T03:51:37;5.60;99.90
47521;DHT22;32291;52.010;4.446;2024-01-25T03:52:44;5.50;99.90
47521;DHT22;32291;52.010;4.446;2024-01-25T03:53:51;5.50;99.90
47521;DHT22;32291;52.010;4.446;2024-01-25T03:54:59;5.40;99.90
47521;DHT22;32291;52.010;4.446;2024-01-25T03:56:01;5.40;99.90
47521;DHT22;32291;52.010;4.446;2024-01-25T03:57:08;5.40;99.90
47521;DHT22;32291;52.010;4.446;2024-01-25T03:58:18;5.40;99.90
47521;DHT22;32291;52.010;4.446;2024-01-25T03:59:25;5.40;99.90
47521;DHT22;32291;52.010;4.446;2024-01-25T04:00:31;5.40;99.90
47521;DHT22;32291;52.010;4.446;2024-01-25T04:01:43;5.40;99.90
47521;DHT22;32291;52.010;4.446;2024-01-25T04:02:48;5.50;99.90
47521;DHT22;32291;52.010;4.446;2024-01-25T04:03:55;5.40;99.90
47521;DHT22;32291;52.010;4.446;2024-01-25T04:05:03;5.40;99.90
47521;DHT22;32291;52.010;4.446;2024-01-25T04:06:11;5.50;99.90
47521;DHT22;32291;52.010;4.446;2024-01-25T04:07:18;5.50;99.90
47521;DHT22;32291;52.010;4.446;2024-01-25T04:08:25;5.60;99.90
47521;DHT22;32291;52.010;4.446;2024-01-25T04:09:32;5.80;99.90
47521;DHT22;32291;52.010;4.446;2024-01-25T04:10:34;5.60;99.90
47521;DHT22;32291;52.010;4.446;2024-01-25T04:11:40;5.60;99.90
47521;DHT22;32291;52.010;4.446;2024-01-25T04:12:47;5.60;99.90
47521;DHT22;32291;52.010;4.446;2024-01-25T04:13:54;5.50;99.90
47521;DHT22;32291;52.010;4.446;2024-01-25T04:15:01;5.60;99.90
47521;DHT22;32291;52.010;4.446;2024-01-25T04:16:08;5.50;99.90
47521;DHT22;32291;52.010;4.446;2024-01-25T04:17:14;5.40;99.90
47521;DHT22;32291;52.010;4.446;2024-01-25T04:18:21;5.30;99.90
47521;DHT22;32291;52.010;4.446;2024-01-25T04:19:28;5.30;99.90
47521;DHT22;32291;52.010;4.446;2024-01-25T04:20:35;5.30;99.90
47521;DHT22;32291;52.010;4.446;2024-01-25T04:21:38;5.20;99.90
47521;DHT22;32291;52.010;4.446;2024-01-25T04:22:45;5.20;99.90
47521;DHT22;32291;52.010;4.446;2024-01-25T04:23:52;5.20;99.90
47521;DHT22;32291;52.010;4.446;2024-01-25T04:24:58;5.20;99.90
47521;DHT22;32291;52.010;4.446;2024-01-25T04:26:00;5.10;99.90
47521;DHT22;32291;52.010;4.446;2024-01-25T04:27:07;5.10;99.90
47521;DHT22;32291;52.010;4.446;2024-01-25T04:28:14;5.00;99.90
47521;DHT22;32291;52.010;4.446;2024-01-25T04:29:21;5.00;99.90
47521;DHT22;32291;52.010;4.446;2024-01-25T04:30:28;4.90;99.90
47521;DHT22;32291;52.010;4.446;2024-01-25T04:31:42;4.80;99.90
47521;DHT22;32291;52.010;4.446;2024-01-25T04:32:46;4.80;99.90
47521;DHT22;32291;52.010;4.446;2024-01-25T04:33:53;4.60;99.90
47521;DHT22;32291;52.010;4.446;2024-01-25T04:35:00;4.60;99.90
47521;DHT22;32291;52.010;4.446;2024-01-25T04:36:07;4.50;99.90
47521;DHT22;32291;52.010;4.446;2024-01-25T04:37:14;4.50;99.90
47521;DHT22;32291;52.010;4.446;2024-01-25T04:38:22;4.40;99.90
47521;DHT22;32291;52.010;4.446;2024-01-25T04:39:28;4.50;99.90
47521;DHT22;32291;52.010;4.446;2024-01-25T04:40:35;4.40;99.90
47521;DHT22;32291;52.010;4.446;2024-01-25T04:41:38;4.40;99.90
47521;DHT22;32291;52.010;4.446;2024-01-25T04:42:45;4.40;99.90
47521;DHT22;32291;52.010;4.446;2024-01-25T04:43:47;4.30;99.90
47521;DHT22;32291;52.010;4.446;2024-01-25T04:44:54;4.20;99.90
47521;DHT22;32291;52.010;4.446;2024-01-25T04:46:01;4.20;99.90
47521;DHT22;32291;52.010;4.446;2024-01-25T04:47:03;4.10;99.90
47521;DHT22;32291;52.010;4.446;2024-01-25T04:48:10;4.10;99.90
47521;DHT22;32291;52.010;4.446;2024-01-25T04:49:17;4.10;99.90
47521;DHT22;32291;52.010;4.446;2024-01-25T04:50:19;4.10;99.90
47521;DHT22;32291;52.010;4.446;2024-01-25T04:51:26;4.10;99.90
47521;DHT22;32291;52.010;4.446;2024-01-25T04:52:33;4.30;99.90
47521;DHT22;32291;52.010;4.446;2024-01-25T04:53:40;4.30;99.90
47521;DHT22;32291;52.010;4.446;2024-01-25T04:54:42;4.40;99.90
47521;DHT22;32291;52.010;4.446;2024-01-25T04:55:49;4.40;99.90
47521;DHT22;32291;52.010;4.446;2024-01-25T04:56:51;4.40;99.90
47521;DHT22;32291;52.010;4.446;2024-01-25T04:57:53;4.50;99.90
47521;DHT22;32291;52.010;4.446;2024-01-25T04:59:00;4.40;99.90
47521;DHT22;32291;52.010;4.446;2024-01-25T05:00:03;4.40;99.90
47521;DHT22;32291;52.010;4.446;2024-01-25T05:01:11;4.30;99.90
47521;DHT22;32291;52.010;4.446;2024-01-25T05:02:18;4.30;99.90
47521;DHT22;32291;52.010;4.446;2024-01-25T05:03:25;4.20;99.90
47521;DHT22;32291;52.010;4.446;2024-01-25T05:04:32;4.30;99.90
47521;DHT22;32291;52.010;4.446;2024-01-25T05:05:39;4.30;99.90
47521;DHT22;32291;52.010;4.446;2024-01-25T05:06:41;4.20;99.90
47521;DHT22;32291;52.010;4.446;2024-01-25T05:07:51;4.30;99.90
47521;DHT22;32291;52.010;4.446;2024-01-25T05:08:53;4.30;99.90
47521;DHT22;32291;52.010;4.446;2024-01-25T05:09:55;4.30;99.90
47521;DHT22;32291;52.010;4.446;2024-01-25T05:11:02;4.30;99.90
47521;DHT22;32291;52.010;4.446;2024-01-25T05:12:09;4.40;99.90
47521;DHT22;32291;52.010;4.446;2024-01-25T05:13:16;4.30;99.90
47521;DHT22;32291;52.010;4.446;2024-01-25T05:14:18;4.30;99.90
47521;DHT22;32291;52.010;4.446;2024-01-25T05:15:25;4.20;99.90
47521;DHT22;32291;52.010;4.446;2024-01-25T05:16:32;4.20;99.90
47521;DHT22;32291;52.010;4.446;2024-01-25T05:17:39;4.10;99.90
47521;DHT22;32291;52.010;4.446;2024-01-25T05:18:46;4.10;99.90
47521;DHT22;32291;52.010;4.446;2024-01-25T05:19:52;4.20;99.90
47521;DHT22;32291;52.010;4.446;2024-01-25T05:20:59;4.20;99.90
47521;DHT22;32291;52.010;4.446;2024-01-25T05:22:06;4.20;99.90
47521;DHT22;32291;52.010;4.446;2024-01-25T05:23:14;4.20;99.90
47521;DHT22;32291;52.010;4.446;2024-01-25T05:24:20;4.20;99.90
47521;DHT22;32291;52.010;4.446;2024-01-25T05:25:28;4.20;99.90
47521;DHT22;32291;52.010;4.446;2024-01-25T05:26:35;4.20;99.90
47521;DHT22;32291;52.010;4.446;2024-01-25T05:27:42;4.20;99.90
47521;DHT22;32291;52.010;4.446;2024-01-25T05:28:49;4.30;99.90
47521;DHT22;32291;52.010;4.446;2024-01-25T05:29:55;4.30;99.90
47521;DHT22;32291;52.010;4.446;2024-01-25T05:31:02;4.20;99.90
47521;DHT22;32291;52.010;4.446;2024-01-25T05:32:05;4.30;99.90
47521;DHT22;32291;52.010;4.446;2024-01-25T05:33:07;4.40;99.90
47521;DHT22;32291;52.010;4.446;2024-01-25T05:34:12;4.30;99.90
47521;DHT22;32291;52.010;4.446;2024-01-25T05:35:19;4.30;99.90
47521;DHT22;32291;52.010;4.446;2024-01-25T05:36:21;4.30;99.90
47521;DHT22;32291;52.010;4.446;2024-01-25T05:37:23;4.30;99.90
47521;DHT22;32291;52.010;4.446;2024-01-25T05:38:30;4.20;99.90
47521;DHT22;32291;52.010;4.446;2024-01-25T05:39:37;4.20;99.90
47521;DHT22;32291;52.010;4.446;2024-01-25T05:40:46;4.10;99.90
47521;DHT22;32291;52.010;4.446;2024-01-25T05:41:53;4.10;99.90
47521;DHT22;32291;52.010;4.446;2024-01-25T05:42:55;4.00;99.90
47521;DHT22;32291;52.010;4.446;2024-01-25T05:44:02;4.00;99.90
47521;DHT22;32291;52.010;4.446;2024-01-25T05:45:10;4.00;99.90
47521;DHT22;32291;52.010;4.446;2024-01-25T05:46:17;4.00;99.90
47521;DHT22;32291;52.010;4.446;2024-01-25T05:47:19;3.90;99.90
47521;DHT22;32291;52.010;4.446;2024-01-25T05:48:26;4.00;99.90
47521;DHT22;32291;52.010;4.446;2024-01-25T05:49:33;4.00;99.90
47521;DHT22;32291;52.010;4.446;2024-01-25T05:50:40;4.00;99.90
47521;DHT22;32291;52.010;4.446;2024-01-25T05:51:46;3.90;99.90
47521;DHT22;32291;52.010;4.446;2024-01-25T05:52:53;3.90;99.90
47521;DHT22;32291;52.010;4.446;2024-01-25T05:54:00;3.90;99.90
47521;DHT22;32291;52.010;4.446;2024-01-25T05:55:07;3.80;99.90
47521;DHT22;32291;52.010;4.446;2024-01-25T05:56:15;3.80;99.90
47521;DHT22;32291;52.010;4.446;2024-01-25T05:57:21;3.70;99.90
47521;DHT22;32291;52.010;4.446;2024-01-25T05:58:28;3.70;99.90
47521;DHT22;32291;52.010;4.446;2024-01-25T05:59:35;3.70;99.90
47521;DHT22;32291;52.010;4.446;2024-01-25T06:00:42;3.70;99.90
47521;DHT22;32291;52.010;4.446;2024-01-25T06:01:50;3.80;99.90
47521;DHT22;32291;52.010;4.446;2024-01-25T06:02:57;3.90;99.90
47521;DHT22;32291;52.010;4.446;2024-01-25T06:04:03;4.00;99.90
47521;DHT22;32291;52.010;4.446;2024-01-25T06:05:11;4.10;99.90
47521;DHT22;32291;52.010;4.446;2024-01-25T06:06:18;4.20;99.90
47521;DHT22;32291;52.010;4.446;2024-01-25T06:07:26;4.20;99.90
47521;DHT22;32291;52.010;4.446;2024-01-25T06:08:33;4.20;99.90
47521;DHT22;32291;52.010;4.446;2024-01-25T06:09:41;4.20;99.90
47521;DHT22;32291;52.010;4.446;2024-01-25T06:10:48;4.10;99.90
47521;DHT22;32291;52.010;4.446;2024-01-25T06:11:55;4.10;99.90
47521;DHT22;32291;52.010;4.446;2024-01-25T06:13:02;4.00;99.90
47521;DHT22;32291;52.010;4.446;2024-01-25T06:14:05;3.90;99.90
47521;DHT22;32291;52.010;4.446;2024-01-25T06:15:12;3.90;99.90
47521;DHT22;32291;52.010;4.446;2024-01-25T06:16:19;3.80;99.90
47521;DHT22;32291;52.010;4.446;2024-01-25T06:17:21;3.80;99.90
47521;DHT22;32291;52.010;4.446;2024-01-25T06:18:28;3.70;99.90
47521;DHT22;32291;52.010;4.446;2024-01-25T06:19:37;3.70;99.90
47521;DHT22;32291;52.010;4.446;2024-01-25T06:20:44;3.80;99.90
47521;DHT22;32291;52.010;4.446;2024-01-25T06:21:51;3.80;99.90
47521;DHT22;32291;52.010;4.446;2024-01-25T06:22:58;3.90;99.90
47521;DHT22;32291;52.010;4.446;2024-01-25T06:24:05;3.90;99.90
47521;DHT22;32291;52.010;4.446;2024-01-25T06:25:12;4.00;99.90
47521;DHT22;32291;52.010;4.446;2024-01-25T06:26:19;4.00;99.90
47521;DHT22;32291;52.010;4.446;2024-01-25T06:27:26;4.00;99.90
47521;DHT22;32291;52.010;4.446;2024-01-25T06:28:33;3.90;99.90
47521;DHT22;32291;52.010;4.446;2024-01-25T06:29:39;3.90;99.90
47521;DHT22;32291;52.010;4.446;2024-01-25T06:30:46;3.90;99.90
47521;DHT22;32291;52.010;4.446;2024-01-25T06:31:48;3.90;99.90
47521;DHT22;32291;52.010;4.446;2024-01-25T06:32:55;4.00;99.90
47521;DHT22;32291;52.010;4.446;2024-01-25T06:34:02;3.80;99.90
47521;DHT22;32291;52.010;4.446;2024-01-25T06:35:04;3.80;99.90
47521;DHT22;32291;52.010;4.446;2024-01-25T06:36:11;3.80;99.90
47521;DHT22;32291;52.010;4.446;2024-01-25T06:37:20;3.70;99.90
47521;DHT22;32291;52.010;4.446;2024-01-25T06:38:27;3.70;99.90
47521;DHT22;32291;52.010;4.446;2024-01-25T06:39:34;3.60;99.90
47521;DHT22;32291;52.010;4.446;2024-01-25T06:40:41;3.60;99.90
47521;DHT22;32291;52.010;4.446;2024-01-25T06:41:48;3.70;99.90
47521;DHT22;32291;52.010;4.446;2024-01-25T06:42:50;3.70;99.90
47521;DHT22;32291;52.010;4.446;2024-01-25T06:43:52;3.80;99.90
47521;DHT22;32291;52.010;4.446;2024-01-25T06:44:59;3.90;99.90
47521;DHT22;32291;52.010;4.446;2024-01-25T06:46:06;4.00;99.90
47521;DHT22;32291;52.010;4.446;2024-01-25T06:47:09;4.10;99.90
47521;DHT22;32291;52.010;4.446;2024-01-25T06:48:16;4.10;99.90
47521;DHT22;32291;52.010;4.446;2024-01-25T06:49:23;4.10;99.90
47521;DHT22;32291;52.010;4.446;2024-01-25T06:50:30;4.10;99.90
47521;DHT22;32291;52.010;4.446;2024-01-25T06:51:39;4.10;99.90
47521;DHT22;32291;52.010;4.446;2024-01-25T06:52:41;4.10;99.90
47521;DHT22;32291;52.010;4.446;2024-01-25T06:53:48;4.00;99.90
47521;DHT22;32291;52.010;4.446;2024-01-25T06:54:55;4.10;99.90
47521;DHT22;32291;52.010;4.446;2024-01-25T06:56:02;4.10;99.90
47521;DHT22;32291;52.010;4.446;2024-01-25T06:57:04;4.10;99.90
47521;DHT22;32291;52.010;4.446;2024-01-25T06:58:11;4.10;99.90
47521;DHT22;32291;52.010;4.446;2024-01-25T06:59:18;4.10;99.90
47521;DHT22;32291;52.010;4.446;2024-01-25T07:00:25;4.10;99.90
47521;DHT22;32291;52.010;4.446;2024-01-25T07:01:27;4.20;99.90
47521;DHT22;32291;52.010;4.446;2024-01-25T07:02:34;4.30;99.90
47521;DHT22;32291;52.010;4.446;2024-01-25T07:03:41;4.30;99.90
47521;DHT22;32291;52.010;4.446;2024-01-25T07:04:48;4.40;99.90
47521;DHT22;32291;52.010;4.446;2024-01-25T07:05:59;4.40;99.90